createdAt,value
2022-08-03T00:04:11.636Z,22.04
2022-08-03T00:08:23.688Z,21.93
2022-08-03T00:12:36.492Z,21.83
2022-08-03T00:16:48.148Z,21.80
2022-08-03T00:20:59.768Z,21.73
2022-08-03T00:25:11.412Z,21.70
2022-08-03T00:29:23.059Z,21.61
2022-08-03T00:33:59.101Z,21.55
2022-08-03T00:38:06.383Z,21.51
2022-08-03T00:42:18.500Z,21.45
2022-08-03T00:46:30.402Z,21.40
2022-08-03T00:50:43.596Z,21.40
2022-08-03T00:54:55.262Z,21.31
2022-08-03T00:59:07.295Z,21.27
2022-08-03T01:03:19.007Z,21.21
2022-08-03T01:07:43.922Z,21.12
2022-08-03T01:12:26.882Z,21.06
2022-08-03T01:17:01.935Z,21.04
2022-08-03T01:21:25.367Z,20.93
2022-08-03T01:25:56.416Z,20.91
2022-08-03T01:30:10.657Z,20.82
2022-08-03T01:34:25.357Z,20.75
2022-08-03T01:38:43.121Z,20.72
2022-08-03T01:42:57.632Z,20.71
2022-08-03T01:47:11.009Z,20.67
2022-08-03T01:51:23.770Z,20.62
2022-08-03T01:55:57.430Z,20.59
2022-08-03T02:00:09.906Z,20.56
2022-08-03T02:04:28.227Z,20.53
2022-08-03T02:08:41.874Z,20.45
2022-08-03T02:12:54.664Z,20.41
2022-08-03T02:17:10.429Z,20.38
2022-08-03T02:21:57.234Z,20.32
2022-08-03T02:25:59.912Z,20.27
2022-08-03T02:30:14.509Z,20.27
2022-08-03T02:34:29.437Z,20.23
2022-08-03T02:38:43.339Z,20.14
2022-08-03T02:42:59.647Z,20.06
2022-08-03T02:47:13.365Z,20.07
2022-08-03T02:51:28.196Z,20.02
2022-08-03T02:55:45.638Z,19.97
2022-08-03T02:59:58.232Z,19.93
2022-08-03T03:04:11.318Z,19.85
2022-08-03T03:08:28.432Z,19.81
2022-08-03T03:12:42.254Z,19.74
2022-08-03T03:16:57.917Z,19.67
2022-08-03T03:21:10.798Z,19.66
2022-08-03T03:25:22.730Z,19.65
2022-08-03T03:29:39.289Z,19.62
2022-08-03T03:33:51.407Z,19.58
2022-08-03T03:38:03.090Z,19.51
2022-08-03T03:42:14.932Z,19.48
2022-08-03T03:46:26.893Z,19.46
2022-08-03T03:50:41.973Z,19.40
2022-08-03T03:54:57.491Z,19.37
2022-08-03T03:59:12.409Z,19.39
2022-08-03T04:03:24.192Z,19.34
2022-08-03T04:08:19.193Z,19.33
2022-08-03T04:12:31.741Z,19.31
2022-08-03T04:16:49.170Z,19.32
2022-08-03T04:21:06.430Z,19.36
2022-08-03T04:25:20.882Z,19.38
2022-08-03T04:29:38.725Z,19.42
2022-08-03T04:34:00.594Z,19.53
2022-08-03T04:38:14.416Z,19.63
2022-08-03T04:42:27.025Z,19.75
2022-08-03T04:46:40.001Z,19.93
2022-08-03T04:50:58.510Z,20.02
2022-08-03T04:55:10.256Z,20.19
2022-08-03T04:59:21.969Z,20.90
2022-08-03T05:03:33.617Z,22.35
2022-08-03T05:07:45.232Z,23.26
2022-08-03T05:11:56.963Z,24.05
2022-08-03T05:16:08.697Z,24.63
2022-08-03T05:20:20.434Z,24.68
2022-08-03T05:24:32.108Z,24.83
2022-08-03T05:28:49.940Z,25.53
2022-08-03T05:33:03.988Z,26.79
2022-08-03T05:37:15.821Z,27.95
2022-08-03T05:41:36.802Z,28.89
2022-08-03T05:46:01.487Z,29.51
2022-08-03T05:50:21.081Z,30.24
2022-08-03T05:54:55.976Z,30.66
2022-08-03T05:59:22.758Z,31.26
2022-08-03T06:03:35.935Z,31.87
2022-08-03T06:07:47.618Z,32.22
2022-08-03T06:11:59.248Z,32.46
2022-08-03T06:16:11.063Z,32.27
2022-08-03T06:20:27.314Z,31.46
2022-08-03T06:24:39.251Z,30.89
2022-08-03T06:29:04.086Z,31.11
2022-08-03T06:33:16.664Z,31.57
2022-08-03T06:37:28.846Z,32.16
2022-08-03T06:41:44.858Z,32.59
2022-08-03T06:45:56.690Z,32.94
2022-08-03T06:50:16.218Z,32.59
2022-08-03T06:54:32.924Z,32.64
2022-08-03T06:58:45.149Z,33.34
2022-08-03T07:02:58.424Z,33.99
2022-08-03T07:07:10.293Z,34.16
2022-08-03T07:11:22.503Z,34.11
2022-08-03T07:15:38.403Z,34.63
2022-08-03T07:20:08.391Z,35.15
2022-08-03T07:24:20.753Z,35.30
2022-08-03T07:28:32.405Z,35.60
2022-08-03T07:32:50.183Z,35.92
2022-08-03T07:37:02.481Z,35.70
2022-08-03T07:41:14.165Z,36.18
2022-08-03T07:45:26.827Z,35.97
2022-08-03T07:49:41.806Z,35.83
2022-08-03T07:53:53.725Z,36.16
2022-08-03T07:58:09.336Z,36.02
2022-08-03T08:02:21.028Z,36.56
2022-08-03T08:06:33.463Z,36.52
2022-08-03T08:10:57.843Z,36.85
2022-08-03T08:15:10.362Z,37.25
2022-08-03T08:19:22.114Z,37.70
2022-08-03T08:23:42.278Z,38.01
2022-08-03T08:28:22.203Z,38.16
2022-08-03T08:32:28.420Z,38.79
2022-08-03T08:36:40.223Z,38.44
2022-08-03T08:40:56.047Z,38.59
2022-08-03T08:45:09.289Z,38.89
2022-08-03T08:49:23.550Z,39.53
2022-08-03T08:53:38.663Z,39.81
2022-08-03T08:58:01.866Z,39.90
2022-08-03T09:02:13.714Z,39.84
2022-08-03T09:06:25.474Z,39.92
2022-08-03T09:10:37.280Z,40.19
2022-08-03T09:15:01.043Z,40.59
2022-08-03T09:19:21.609Z,40.68
2022-08-03T09:24:02.222Z,40.81
2022-08-03T09:29:01.756Z,40.76
2022-08-03T09:32:49.943Z,40.60
2022-08-03T09:37:02.537Z,40.66
2022-08-03T09:41:22.855Z,40.60
2022-08-03T09:45:36.092Z,40.59
2022-08-03T09:50:07.447Z,40.75
2022-08-03T09:54:30.249Z,41.27
2022-08-03T09:58:47.339Z,41.58
2022-08-03T10:03:05.811Z,41.64
2022-08-03T10:07:17.669Z,41.35
2022-08-03T10:11:31.050Z,41.11
2022-08-03T10:16:21.916Z,41.34
2022-08-03T10:20:14.694Z,41.51
2022-08-03T10:24:29.520Z,41.28
2022-08-03T10:28:47.258Z,41.17
2022-08-03T10:33:05.102Z,41.60
2022-08-03T10:37:42.603Z,41.57
2022-08-03T10:42:14.659Z,41.46
2022-08-03T10:46:27.673Z,41.83
2022-08-03T10:50:42.112Z,41.87
2022-08-03T10:55:12.752Z,42.02
2022-08-03T10:59:46.915Z,42.11
2022-08-03T11:03:58.547Z,41.95
2022-08-03T11:08:34.961Z,41.73
2022-08-03T11:12:47.181Z,41.61
2022-08-03T11:17:14.175Z,41.66
2022-08-03T11:21:48.265Z,41.51
2022-08-03T11:26:15.905Z,41.50
2022-08-03T11:30:29.758Z,41.83
2022-08-03T11:35:08.070Z,41.76
2022-08-03T11:39:19.729Z,41.54
2022-08-03T11:43:32.001Z,41.58
2022-08-03T11:47:51.162Z,41.81
2022-08-03T11:52:03.333Z,41.50
2022-08-03T11:56:14.980Z,41.22
2022-08-03T12:00:31.075Z,40.94
2022-08-03T12:05:02.797Z,40.90
2022-08-03T12:09:17.608Z,40.71
2022-08-03T12:14:26.988Z,40.32
2022-08-03T12:18:18.441Z,40.17
2022-08-03T12:22:39.275Z,39.95
2022-08-03T12:26:58.535Z,39.25
2022-08-03T12:31:11.551Z,38.84
2022-08-03T12:35:24.639Z,38.38
2022-08-03T12:39:36.405Z,37.88
2022-08-03T12:44:09.720Z,37.56
2022-08-03T12:48:21.371Z,37.27
2022-08-03T12:52:43.251Z,37.07
2022-08-03T12:57:08.751Z,36.96
2022-08-03T13:01:24.237Z,36.93
2022-08-03T13:05:45.280Z,36.84
2022-08-03T13:09:56.962Z,36.61
2022-08-03T13:14:08.563Z,36.32
2022-08-03T13:18:25.058Z,36.32
2022-08-03T13:22:36.792Z,36.20
2022-08-03T13:26:48.409Z,36.18
2022-08-03T13:31:00.645Z,36.11
2022-08-03T13:35:12.360Z,35.97
2022-08-03T13:39:32.481Z,35.71
2022-08-03T13:43:46.861Z,35.52
2022-08-03T13:47:58.530Z,35.20
2022-08-03T13:52:10.230Z,34.90
2022-08-03T13:56:21.908Z,35.08
2022-08-03T14:00:34.440Z,35.17
2022-08-03T14:04:46.057Z,35.03
2022-08-03T14:09:00.558Z,34.81
2022-08-03T14:13:16.851Z,34.72
2022-08-03T14:17:40.779Z,34.84
2022-08-03T14:22:06.246Z,34.85
2022-08-03T14:26:20.295Z,34.77
2022-08-03T14:30:32.002Z,34.76
2022-08-03T14:34:43.794Z,34.68
2022-08-03T14:39:00.767Z,34.55
2022-08-03T14:43:13.223Z,34.39
2022-08-03T14:47:24.943Z,34.33
2022-08-03T14:51:36.707Z,34.34
2022-08-03T14:55:50.618Z,34.27
2022-08-03T15:00:04.694Z,34.12
2022-08-03T15:04:16.610Z,33.94
2022-08-03T15:08:28.367Z,33.90
2022-08-03T15:12:40.009Z,33.78
2022-08-03T15:16:51.711Z,33.93
2022-08-03T15:21:03.403Z,33.91
2022-08-03T15:26:03.567Z,33.77
2022-08-03T15:30:06.715Z,33.78
2022-08-03T15:34:18.575Z,33.73
2022-08-03T15:38:30.189Z,33.61
2022-08-03T15:42:41.881Z,33.59
2022-08-03T15:46:53.902Z,33.47
2022-08-03T15:51:05.872Z,33.37
2022-08-03T15:55:17.516Z,33.31
2022-08-03T15:59:29.164Z,33.24
2022-08-03T16:03:40.805Z,33.21
2022-08-03T16:07:59.022Z,33.12
2022-08-03T16:12:16.907Z,33.13
2022-08-03T16:16:28.637Z,33.12
2022-08-03T16:20:42.588Z,33.05
2022-08-03T16:24:55.304Z,33.04
2022-08-03T16:29:09.854Z,32.97
2022-08-03T16:33:35.508Z,32.93
2022-08-03T16:37:54.620Z,32.79
2022-08-03T16:42:08.708Z,32.75
2022-08-03T16:46:20.354Z,32.69
2022-08-03T16:50:32.210Z,32.55
2022-08-03T16:54:44.363Z,32.48
2022-08-03T16:59:04.816Z,32.55
2022-08-03T17:03:24.268Z,32.49
2022-08-03T17:07:36.196Z,32.42
2022-08-03T17:11:51.068Z,32.35
2022-08-03T17:16:04.835Z,32.20
2022-08-03T17:21:13.979Z,32.17
2022-08-03T17:25:51.468Z,32.05
2022-08-03T17:30:01.470Z,32.02
2022-08-03T17:34:14.529Z,31.96
2022-08-03T17:38:28.962Z,31.98
2022-08-03T17:42:50.447Z,32.03
2022-08-03T17:47:02.830Z,31.98
2022-08-03T17:51:34.019Z,31.86
2022-08-03T17:56:44.837Z,31.74
2022-08-03T18:01:59.822Z,31.67
2022-08-03T18:06:11.247Z,31.47
2022-08-03T18:10:20.727Z,31.41
2022-08-03T18:14:57.158Z,31.37
2022-08-03T18:19:13.808Z,31.23
2022-08-03T18:23:36.649Z,31.19
2022-08-03T18:27:50.563Z,31.20
2022-08-03T18:32:13.279Z,31.18
2022-08-03T18:36:30.289Z,31.04
2022-08-03T18:40:48.650Z,31.03
2022-08-03T18:45:55.347Z,30.93
2022-08-03T18:50:18.993Z,30.87
2022-08-03T18:55:02.542Z,30.71
2022-08-03T18:59:32.664Z,30.48
2022-08-03T19:03:52.062Z,30.38
2022-08-03T19:08:13.691Z,30.23
2022-08-03T19:12:37.853Z,30.06
2022-08-03T19:17:03.566Z,30.00
2022-08-03T19:21:17.527Z,29.78
2022-08-03T19:25:35.305Z,29.74
2022-08-03T19:29:58.811Z,29.61
2022-08-03T19:34:20.876Z,29.47
2022-08-03T19:38:35.938Z,29.36
2022-08-03T19:42:54.686Z,29.23
2022-08-03T19:47:29.420Z,29.16
2022-08-03T19:52:01.863Z,29.08
2022-08-03T19:56:15.187Z,29.08
2022-08-03T20:00:30.551Z,29.00
2022-08-03T20:04:48.930Z,28.85
2022-08-03T20:09:03.401Z,28.75
2022-08-03T20:13:19.642Z,28.66
2022-08-03T20:17:54.616Z,28.61
2022-08-03T20:22:08.193Z,28.46
2022-08-03T20:26:29.200Z,28.43
2022-08-03T20:30:47.383Z,28.30
2022-08-03T20:36:05.872Z,28.27
2022-08-03T20:40:20.644Z,28.10
2022-08-03T20:44:34.720Z,28.00
2022-08-03T20:48:57.187Z,27.82
2022-08-03T20:53:12.127Z,27.72
2022-08-03T20:57:24.746Z,27.67
2022-08-03T21:01:37.359Z,27.59
2022-08-03T21:05:53.525Z,27.52
2022-08-03T21:10:06.218Z,27.48
2022-08-03T21:14:31.699Z,27.43
2022-08-03T21:18:50.039Z,27.28
2022-08-03T21:23:09.619Z,27.20
2022-08-03T21:27:21.516Z,27.10
2022-08-03T21:31:33.329Z,26.98
2022-08-03T21:35:46.451Z,26.92
2022-08-03T21:39:58.162Z,26.80
2022-08-03T21:44:09.910Z,26.67
2022-08-03T21:48:25.099Z,26.63
2022-08-03T21:52:43.334Z,26.56
2022-08-03T21:56:56.257Z,26.53
2022-08-03T22:01:09.417Z,26.43
2022-08-03T22:05:29.199Z,26.36
2022-08-03T22:09:58.078Z,26.28
2022-08-03T22:14:10.214Z,26.16
2022-08-03T22:18:22.262Z,26.08
2022-08-03T22:22:35.668Z,26.09
2022-08-03T22:27:06.967Z,26.02
2022-08-03T22:31:30.745Z,26.01
2022-08-03T22:35:55.909Z,25.93
2022-08-03T22:40:11.821Z,25.96
2022-08-03T22:44:24.097Z,25.89
2022-08-03T22:48:41.323Z,25.86
2022-08-03T22:52:54.211Z,25.80
2022-08-03T22:57:05.974Z,25.78
2022-08-03T23:01:21.237Z,25.71
2022-08-03T23:06:01.779Z,25.70
2022-08-03T23:10:09.026Z,25.62
2022-08-03T23:14:22.406Z,25.57
2022-08-03T23:18:41.276Z,25.51
2022-08-03T23:22:54.422Z,25.46
2022-08-03T23:27:09.168Z,25.41
2022-08-03T23:31:27.725Z,25.34
2022-08-03T23:36:28.061Z,25.30
2022-08-03T23:40:31.256Z,25.20
2022-08-03T23:44:44.575Z,25.20
2022-08-03T23:48:59.953Z,25.15
2022-08-03T23:53:21.556Z,25.10
2022-08-03T23:57:54.661Z,25.08
